Mesquite, Nevada Weather observations

Data are for observation ending at time listed.
 Day   Time    Ave.   Ave.  Ave.  Vector   Max.   Stn.    Total    Solar   Ave.  
  of    of     Air    Rel.  Wind   Wind    Wind   Baro.  Precip.   Rad.    Soil  
Year   Day     Temp.  Hum.  Speed  Dir.    Gust   Pres.                    Temp. 
2016   (PST)    F      %     mph   deg.    mph     mb.     in.     W/m2     F   
------------------------------------------------------------------------------
 147    8:20   73.7    22    5.4   236      9.4   948.8    0.00     531    78.2
 147    8:30   74.1    22    4.1   237      8.1   948.8    0.00     553    78.2
 147    8:40   75.2    21    3.3   220      7.2   948.8    0.00     575    78.2
 147    8:50   75.8    20    4.0   236      8.2   948.8    0.00     596    78.2
 147    9:00   76.9    19    2.3   251      6.5   948.7    0.00     615    78.2
 147    9:10   77.5    18    2.5   223      7.5   948.7    0.00     634    78.3
 147    9:20   78.3    17    2.2   197      7.8   948.6    0.00     649    78.5
 147    9:30   78.3    19    3.0   208      7.8   948.5    0.00     665    78.8
 147    9:40   78.2    20    2.9   227      6.0   948.5    0.00     681    79.1
 147    9:50   78.8    19    3.6   205      7.4   948.4    0.00     695    79.5
 147   10:00   78.6    20    5.0   251     11.0   948.3    0.00     708    80.0
 147   10:10   78.7    19    4.3   249      9.8   948.2    0.00     720    80.5
 147   10:20   79.2    19    5.6   248     10.2   948.2    0.00     733    81.0
 147   10:30   79.0    18    5.9   255     11.6   948.1    0.00     745    81.5
 147   10:40   79.9    18    7.0   239     13.6   948.0    0.00     754    82.0
 147   10:50   80.1    18    5.9   248     13.6   947.9    0.00     764    82.5
 147   11:00   80.4    18    7.0   236     15.3   947.8    0.00     775    82.9
 147   11:10   80.7    17    7.8   264     14.0   947.7    0.00     786    83.4
 147   11:20   80.8    16    6.3   249     13.8   947.7    0.00     803    83.9
 147   11:30   81.2    16    6.1   245     12.2   947.6    0.00     831    84.3
 147   11:40   81.7    15    6.0   239     13.9   947.6    0.00     787    84.8
 147   11:50   81.6    15    6.3   234     11.0   947.5    0.00     671    85.3
 147   12:00   80.5    17    5.0   233     10.7   947.3    0.00     363    85.7
 147   12:10   80.9    16    6.8   236     12.2   947.2    0.00     667    86.2
 147   12:20   82.0    15    7.7   240     15.4   947.2    0.00     827    86.5
 147   12:30   82.6    15    5.6   240     13.8   947.1    0.00     659    86.8
 147   12:40   82.6    14    6.1   232     12.6   947.0    0.00     768    87.1
 147   12:50   83.4    12    6.6   229     16.4   946.8    0.00     755    87.5
 147   13:00   83.1    13    7.7   253     16.3   946.7    0.00     769    87.8
 147   13:10   84.2    12    4.7   205     11.0   946.7    0.00     674    88.1
 147   13:20   84.4    13    3.2   209     10.1   946.6    0.00     590    88.4
 147   13:30   84.0    13    5.0   235     10.8   946.4    0.00     568    88.7
 147   13:40   84.6    13    5.4   224     12.5   946.3    0.00     747    89.0
 147   13:50   85.4    12    4.5   223      9.1   946.2    0.00     559    89.3
 147   14:00   84.2    12    3.4   173      8.5   946.1    0.00     360    89.6
 147   14:10   85.3    12    5.9   182     13.4   946.1    0.00     485    89.9
 147   14:20   85.8    11    7.3   173     15.3   946.1    0.00     774    90.1
 147   14:30   86.8    11    7.1   177     14.4   945.9    0.00     547    90.2
 147   14:40   86.3    11    5.9   195     12.4   945.9    0.00     574    90.4
 147   14:50   86.4    11    5.8   176     13.7   945.8    0.00     539    90.5
 147   15:00   85.6    11    5.4   250     12.5   945.8    0.00     517    90.7
 147   15:10   85.5    11    4.3   177      9.1   945.6    0.00     518    90.9
 147   15:20   86.1    11    6.2   127     11.9   945.5    0.00     501    91.0
 147   15:30   86.8    11    3.2   210      6.9   945.4    0.00     470    91.1
 147   15:40   86.5    12    3.6   216     10.5   945.3    0.00     402    91.3
 147   15:50   85.8    12    4.2   244      9.1   945.3    0.00     406    91.4
 147   16:00   85.8    12    2.6   232      5.3   945.3    0.00     296    91.5
 147   16:10   85.7    12    4.7   259     12.4   945.1    0.00     243    91.6
 147   16:20   84.1    12    5.5   259     12.3   945.1    0.00     164    91.6
 147   16:30   84.1    12    2.2   237      6.1   945.1    0.00     109    91.7
 147   16:40   84.1    12    3.2   228      8.3   945.1    0.00     112    91.6
 147   16:50   83.5    13    7.5   274     19.6   945.1    0.00      83    91.5
 147   17:00   82.6    14   10.7   306     21.4   945.1    0.00      60    91.5
 147   17:10   82.1    15    7.8     8     14.6   945.1    0.00      46    91.3
 147   17:20   81.5    16    8.2    11     16.2   945.2    0.00      47    91.2
 147   17:30   80.6    17    9.6    20     15.3   945.3    0.00      42    91.0
 147   17:40   80.6    17    7.8     5     12.4   945.4    0.00      37    90.7
 147   17:50   80.2    18   11.9   351     21.9   945.6    0.00      32    90.5
 147   18:00   79.7    18   13.5   317     23.8   945.8    0.00      31    90.2
 147   18:10   79.9    17   11.1   307     19.3   945.8    0.00      33    90.0
 147   18:20   80.4    16   11.3   291     18.2   945.8    0.00      35    89.8
 147   18:30   80.5    16    9.5   302     15.1   945.8    0.00      23    89.5
 147   18:40   80.5    16    6.2   318     11.1   945.7    0.00      14    89.3
 147   18:50   80.4    16    5.0   300      8.0   945.7    0.00       7    89.1
 147   19:00   80.4    16    3.2   294      6.8   945.7    0.00       3    88.9
 147   19:10   80.2    16    3.0   343      5.4   945.7    0.00       2    88.7
 147   19:20   78.5    18    6.8    46      9.9   945.7    0.00       1    88.5
 147   19:30   77.9    20    6.1    38      8.7   945.8    0.00       0    88.3
 147   19:40   77.1    20    4.2    62      6.4   945.8    0.00       1    88.1
 147   19:50   77.0    20    5.1    27      7.5   945.8    0.00       0    87.9
 147   20:00   77.2    20    6.9   355     18.0   946.1    0.00       0    87.7
 147   20:10   76.6    23   13.2   354     20.7   946.3    0.00       1    87.5
 147   20:20   76.4    23   11.7     6     17.7   946.3    0.00       0    87.3
 147   20:30   75.8    24   10.2     9     15.5   946.4    0.00       0    87.1
 147   20:40   75.1    25   11.0    10     16.3   946.4    0.00       1    86.9
 147   20:50   74.5    26    9.7    27     16.1   946.4    0.00       0    86.7
 147   21:00   74.6    25    9.6    25     14.5   946.4    0.00       0    86.6
 147   21:10   74.8    25    9.1    26     13.7   946.4    0.00       0    86.4
 147   21:20   74.8    24    8.7    26     14.3   946.4    0.00       0    86.3
 147   21:30   74.6    24    5.3    28      9.6   946.4    0.00       0    86.1
 147   21:40   73.3    27    4.7   226     10.4   946.5    0.00       0    85.9
 147   21:50   72.6    28    5.3   236      7.9   946.5    0.00       0    85.7
 147   22:00   72.0    29    1.9   275      5.7   946.4    0.00       0    85.6
 147   22:10   71.5    30    1.3   288      4.1   946.4    0.00       0    85.4
 147   22:20   71.1    31    1.3   330      5.5   946.4    0.00       0    85.2
 147   22:30   70.9    32    1.6   200      3.8   946.4    0.00       0    85.1
 147   22:40   69.0    34    3.5   123      6.5   946.4    0.00       0    84.9
 147   22:50   68.9    34    1.8    91      4.3   946.5    0.00       0    84.7
 147   23:00   68.5    36    2.6   141      4.8   946.5    0.00       0    84.6
 147   23:10   68.0    36    2.6   102      4.0   946.5    0.00       0    84.4
 147   23:20   67.9    36    2.1    88      4.7   946.5    0.00       0    84.3
 147   23:30   66.7    38    3.2    61      4.8   946.5    0.00       0    84.1
 147   23:40   66.4    39    3.5    70      5.0   946.7    0.00       0    84.0
 147   23:50   66.1    39    4.6    53      5.8   946.6    0.00       0    83.8
 148    0:00   66.2    38    3.7    24      5.8   946.6    0.00       0    83.7
 148    0:10   66.5    37    4.7    15      7.7   946.6    0.00       0    83.5
 148    0:20   66.5    37    3.8     7      5.6   946.6    0.00       0    83.3
 148    0:30   66.8    37    4.1     5      6.1   946.5    0.00       0    83.2
 148    0:40   66.8    37    3.6    10      5.6   946.4    0.00       0    83.0
 148    0:50   66.8    36    2.6    16      4.9   946.4    0.00       0    82.9
 148    1:00   66.7    37    1.6    42      3.6   946.4    0.00       0    82.7
 148    1:10   66.5    37    2.4    43      4.4   946.3    0.00       0    82.6
 148    1:20   65.5    39    3.9    81      5.8   946.3    0.00       0    82.5
 148    1:30   64.3    40    3.4    76      5.1   946.4    0.00       0    82.4
 148    1:40   64.0    40    4.8    85      6.1   946.3    0.00       0    82.3
 148    1:50   64.4    39    5.0    97      6.7   946.3    0.00       0    82.1
 148    2:00   64.9    39    4.8   101      6.2   946.4    0.00       0    82.0
 148    2:10   64.4    41    4.7    85      6.4   946.3    0.00       0    81.9
 148    2:20   63.5    49    5.7    92      7.5   946.1    0.00       0    81.8
 148    2:30   63.3    50    5.9    95      9.2   946.1    0.00       0    81.7
 148    2:40   64.0    45    4.9   115     10.1   946.4    0.00       0    81.6
 148    2:50   64.8    42    1.5    44      3.2   946.6    0.00       0    81.5
 148    3:00   64.8    43    4.2    48      9.9   946.4    0.00       0    81.4
 148    3:10   65.2    45   11.9    84     15.6   945.8    0.00       0    81.2
 148    3:20   66.1    41    3.6   272      8.0   946.1    0.00       0    81.2
 148    3:30   67.4    38    3.2   295      5.3   946.3    0.00       0    81.1
 148    3:40   67.4    39    2.6   310      4.6   946.3    0.00       0    80.9
 148    3:50   67.4    39    3.4   316      4.8   946.2    0.00       0    80.9
 148    4:00   67.6    37    6.3   319     10.7   946.3    0.00       0    80.7
 148    4:10   67.4    38    5.9   336      8.5   946.4    0.00       0    80.7
 148    4:20   67.5    37    4.8   314      7.7   946.4    0.00       2    80.6
 148    4:30   67.8    39    4.1   322      7.5   946.5    0.00       6    80.5
 148    4:40   67.4    41    2.1    21      4.4   946.5    0.00       5    80.4
 148    4:50   66.2    44    4.7    88      7.5   946.6    0.00      10    80.3
 148    5:00   64.6    47    7.4    96     10.2   946.7    0.00      17    80.3
 148    5:10   65.0    45    3.9   144      8.1   947.2    0.00      28    80.2
 148    5:20   66.5    41    2.6   103      5.7   947.2    0.00      79    80.1
 148    5:30   69.7    34    2.4    71      6.6   947.2    0.00     106    80.0
 148    5:40   69.6    34    2.2    26      4.1   947.3    0.00      55    79.9
 148    5:50   69.2    35    0.8   255      2.0   947.4    0.00      86    79.8
 148    6:00   70.1    34    2.5   321      4.4   947.5    0.00     124    79.8
 148    6:10   69.4    35    2.4   281      4.5   947.6    0.00      87    79.7
 148    6:20   70.3    34    2.2   272      3.7   947.7    0.00     254    79.7
 148    6:30   72.7    30    1.5   352      3.6   947.7    0.00     264    79.6
 148    6:40   72.4    31    2.9    66      5.4   947.7    0.00     147    79.5
 148    6:50   71.3    32    2.4    69      4.6   947.8    0.00     145    79.5
 148    7:00   71.2    32    2.5    18      3.9   947.9    0.00     113    79.5
 148    7:10   71.5    32    2.7    52      5.0   947.8    0.00     121    79.5
 148    7:20   72.7    30    3.5    40      6.8   947.8    0.00     264    79.5
 148    7:30   75.5    27    3.6     6      6.9   947.8    0.00     438    79.6
 148    7:40   76.3    26    2.1   319      5.0   947.7    0.00     450    79.6
 148    7:50   77.6    27    3.3   143      6.1   947.8    0.00     473    79.6
 148    8:00   77.6    26    4.0   120      6.8   947.7    0.00     489    79.6
 148    8:10   77.3    26    4.0   110      6.8   947.7    0.00     511    79.6

Return to Mesquite, Nevada graphs page.


Western Regional Climate Center,wrcc@dri.edu